Time;durP1;ratioP1;P1;durP2;ratioP2;P2;SDS_P1;SDS_P2;PMS_P1;PMS_P2;Temp;Humidity;BMP_temperature;BMP_pressure;BME280_temperature;BME280_humidity;BME280_pressure;Samples;Min_cycle;Max_cycle;Signal;HPM_P1;HPM_P2
2022/01/18 00:01:33;;;;;;;36.35;8.10;;;;;;;-146.48;100.00;44366.03;5301031;28;20166;-69
2022/01/18 00:04:05;;;;;;;32.30;7.75;;;;;;;-146.48;100.00;44346.09;5299245;28;20123;-69
2022/01/18 00:06:40;;;;;;;31.52;8.07;;;;;;;-146.48;100.00;44435.91;5300983;28;20020;-69
2022/01/18 00:09:11;;;;;;;37.50;7.88;;;;;;;-146.48;100.00;44435.91;5302075;28;20508;-69
2022/01/18 00:11:48;;;;;;;33.63;7.32;;;;;;;-146.48;100.00;44437.88;5301217;28;20088;-69
2022/01/18 00:14:25;;;;;;;33.10;7.72;;;;;;;-146.48;100.00;44362.06;5303050;28;20040;-69
2022/01/18 00:17:17;;;;;;;33.90;7.40;;;;;;;-146.48;100.00;44403.97;5304969;28;20084;-69
2022/01/18 00:19:55;;;;;;;35.60;8.15;;;;;;;-146.48;100.00;44401.97;5305065;28;20464;-69
2022/01/18 00:22:28;;;;;;;28.45;8.82;;;;;;;-146.48;100.00;44294.19;5304654;28;20486;-69
2022/01/18 00:25:01;;;;;;;33.92;8.07;;;;;;;-146.48;100.00;44264.25;5305022;28;20042;-67
2022/01/18 00:27:32;;;;;;;37.53;8.32;;;;;;;-146.48;100.00;44248.31;5305206;28;20024;-68
2022/01/18 00:30:22;;;;;;;36.45;8.45;;;;;;;-146.48;100.00;44274.25;5305095;28;20021;-68
2022/01/18 00:33:12;;;;;;;36.53;8.75;;;;;;;-146.48;100.00;44328.13;5304784;28;20430;-68
2022/01/18 00:35:46;;;;;;;32.85;7.85;;;;;;;-146.48;100.00;44224.34;5304058;28;20479;-68
2022/01/18 00:38:44;;;;;;;41.15;9.23;;;;;;;-146.48;100.00;44048.75;5305402;28;20027;-68
2022/01/18 00:41:18;;;;;;;36.28;9.05;;;;;;;-146.48;100.00;44176.47;5305113;28;20056;-68
2022/01/18 00:43:52;;;;;;;35.00;8.18;;;;;;;-146.48;100.00;44172.47;5303969;28;20024;-68
2022/01/18 00:46:23;;;;;;;31.23;8.40;;;;;;;-146.48;100.00;44212.38;5305144;28;20038;-68
2022/01/18 00:48:57;;;;;;;38.15;9.15;;;;;;;-146.48;100.00;44222.34;5303827;28;20118;-69
2022/01/18 00:51:30;;;;;;;36.28;7.63;;;;;;;-146.48;100.00;44232.34;5304920;28;20024;-68
2022/01/18 00:54:02;;;;;;;27.85;9.18;;;;;;;-146.48;100.00;44206.38;5304192;28;20024;-69
2022/01/18 00:56:39;;;;;;;34.65;8.23;;;;;;;-146.48;100.00;44326.13;5304262;28;20074;-69
2022/01/18 00:59:10;;;;;;;38.10;8.38;;;;;;;-146.48;100.00;44403.97;5305058;28;20066;-69
2022/01/18 01:01:41;;;;;;;29.67;7.85;;;;;;;-146.48;100.00;44338.09;5304098;28;20020;-69
2022/01/18 01:04:13;;;;;;;32.70;8.82;;;;;;;-146.48;100.00;44318.16;5303706;28;20040;-69
2022/01/18 01:06:44;;;;;;;28.38;7.15;;;;;;;-146.48;100.00;44304.19;5304291;28;20024;-69
2022/01/18 01:09:15;;;;;;;36.13;8.23;;;;;;;-146.48;100.00;44300.19;5304716;28;20024;-69
2022/01/18 01:11:48;;;;;;;27.52;6.97;;;;;;;-146.48;100.00;44282.22;5303224;28;20032;-69
2022/01/18 01:14:23;;;;;;;28.95;8.07;;;;;;;-146.48;100.00;44314.16;5304469;28;20020;-69
2022/01/18 01:17:16;;;;;;;33.30;7.55;;;;;;;-146.48;100.00;44218.38;5303051;28;20040;-69
2022/01/18 01:42:05;;;;;;;44.95;9.65;;;;;;;-146.48;100.00;44050.72;5303251;28;20028;-68
2022/01/18 01:44:48;;;;;;;40.08;9.98;;;;;;;-146.48;100.00;44028.78;5303646;28;20047;-68
2022/01/18 01:47:22;;;;;;;49.53;10.50;;;;;;;-146.48;100.00;43968.91;5303235;28;20424;-69
2022/01/18 01:49:53;;;;;;;41.78;9.50;;;;;;;-146.48;100.00;43925.00;5303147;28;20035;-69
2022/01/18 01:52:25;;;;;;;41.53;9.70;;;;;;;-146.48;100.00;44014.81;5302958;28;20024;-69
2022/01/18 01:54:57;;;;;;;35.45;9.10;;;;;;;-146.48;100.00;43938.97;5303160;28;20326;-68
2022/01/18 01:57:28;;;;;;;38.97;9.30;;;;;;;-146.48;100.00;43859.16;5303727;28;20093;-67
2022/01/18 02:00:06;;;;;;;31.27;9.57;;;;;;;-146.48;100.00;43867.16;5302191;28;20439;-68
2022/01/18 02:02:37;;;;;;;33.17;9.40;;;;;;;-146.48;100.00;43891.09;5302845;28;20038;-70
2022/01/18 02:05:10;;;;;;;33.90;8.45;;;;;;;-146.48;100.00;43843.19;5303095;28;20412;-69
2022/01/18 02:07:41;;;;;;;39.58;7.93;;;;;;;-146.48;100.00;43789.31;5302155;28;20433;-69
2022/01/18 02:10:21;;;;;;;40.55;9.65;;;;;;;-146.48;100.00;43813.28;5303268;28;20081;-69
2022/01/18 02:12:52;;;;;;;40.13;9.52;;;;;;;-146.48;100.00;43907.06;5302624;28;20036;-68
2022/01/18 02:15:23;;;;;;;42.33;9.65;;;;;;;-146.48;100.00;43946.97;5302629;28;20036;-68
2022/01/18 02:23:36;;;;;;;46.65;9.90;;;;;;;-146.48;100.00;44142.53;5303399;28;20032;-68
2022/01/18 02:26:08;;;;;;;39.97;10.18;;;;;;;-146.48;100.00;43917.03;5302506;28;20024;-68
2022/01/18 02:28:39;;;;;;;49.13;10.93;;;;;;;-146.48;100.00;43958.94;5301495;28;20441;-69
2022/01/18 02:31:10;;;;;;;37.53;11.35;;;;;;;-146.48;100.00;43883.13;5302832;28;20494;-68
2022/01/18 02:33:41;;;;;;;37.72;9.77;;;;;;;-146.48;100.00;43984.88;5302025;28;20040;-68
2022/01/18 02:36:13;;;;;;;43.35;10.70;;;;;;;-146.48;100.00;44062.72;5301533;28;20028;-68
2022/01/18 02:38:44;;;;;;;42.00;10.55;;;;;;;-146.48;100.00;43974.91;5302237;28;20028;-69
2022/01/18 02:41:25;;;;;;;33.13;11.57;;;;;;;-146.48;100.00;43978.91;5301814;28;20027;-68
2022/01/18 02:44:05;;;;;;;39.38;12.07;;;;;;;-146.48;100.00;43958.94;5302116;28;20020;-68
2022/01/18 02:46:38;;;;;;;37.33;11.55;;;;;;;-146.48;100.00;43988.88;5302541;28;20050;-68
2022/01/18 02:49:09;;;;;;;41.13;11.32;;;;;;;-146.48;100.00;44038.75;5302132;28;20442;-68
2022/01/18 02:51:41;;;;;;;34.60;11.38;;;;;;;-146.48;100.00;43948.97;5301978;28;20028;-68
2022/01/18 02:54:15;;;;;;;44.35;11.55;;;;;;;-146.48;100.00;43929.00;5302400;28;20030;-68
2022/01/18 02:56:55;;;;;;;40.15;11.65;;;;;;;-146.48;100.00;43972.91;5301056;28;20434;-68
2022/01/18 03:05:16;;;;;;;35.13;11.68;;;;;;;-146.48;100.00;44058.72;5302385;28;20754;-68
2022/01/18 03:07:48;;;;;;;42.92;12.15;;;;;;;-146.48;100.00;43946.97;5302095;28;20051;-68
2022/01/18 03:10:20;;;;;;;40.78;12.52;;;;;;;-146.48;100.00;43964.94;5301752;28;20032;-68
2022/01/18 03:12:51;;;;;;;35.70;12.45;;;;;;;-146.48;100.00;44100.63;5301984;28;20020;-68
2022/01/18 03:15:22;;;;;;;35.70;12.85;;;;;;;-146.48;100.00;44094.63;5302331;28;20081;-68
2022/01/18 03:17:53;;;;;;;38.53;12.43;;;;;;;-146.48;100.00;44000.84;5301320;28;20478;-69
2022/01/18 03:20:25;;;;;;;36.28;12.75;;;;;;;-146.48;100.00;44058.72;5302518;28;20024;-68
2022/01/18 03:22:56;;;;;;;38.78;13.75;;;;;;;-146.48;100.00;44156.50;5301844;28;20020;-68
2022/01/18 03:25:38;;;;;;;39.42;13.07;;;;;;;-146.48;100.00;44120.56;5301540;28;20467;-69
2022/01/18 03:28:10;;;;;;;37.63;12.15;;;;;;;-146.48;100.00;44068.69;5302652;28;20107;-68
2022/01/18 03:30:44;;;;;;;30.05;11.23;;;;;;;-146.48;100.00;44062.72;5301003;28;20451;-68
2022/01/18 03:33:18;;;;;;;31.38;11.80;;;;;;;-146.48;100.00;43970.91;5302158;28;20035;-68
2022/01/18 03:35:52;;;;;;;28.58;11.27;;;;;;;-146.48;100.00;44090.66;5301619;28;20036;-68
2022/01/18 03:38:29;;;;;;;33.00;10.90;;;;;;;-146.48;100.00;44038.75;5301370;28;20031;-68
2022/01/18 03:41:03;;;;;;;29.13;11.07;;;;;;;-146.48;100.00;44042.75;5301832;28;20028;-68
2022/01/18 03:43:35;;;;;;;24.85;10.88;;;;;;;-146.48;100.00;44028.78;5302213;28;20458;-67
2022/01/18 03:46:06;;;;;;;33.58;12.85;;;;;;;-146.48;100.00;44034.78;5300678;28;20115;-68
2022/01/18 03:48:38;;;;;;;31.17;12.65;;;;;;;-146.48;100.00;44082.66;5304200;28;20035;-68
2022/01/18 03:51:10;;;;;;;35.90;12.55;;;;;;;-146.48;100.00;44058.72;5306649;28;20086;-68
2022/01/18 03:53:41;;;;;;;39.63;12.70;;;;;;;-146.48;100.00;44086.66;5304740;28;20028;-68
2022/01/18 03:56:12;;;;;;;29.05;12.10;;;;;;;-146.48;100.00;43974.91;5306127;28;20482;-68
2022/01/18 03:58:43;;;;;;;31.75;11.63;;;;;;;-146.48;100.00;44032.78;5304724;28;20050;-67
2022/01/18 04:01:15;;;;;;;31.52;10.90;;;;;;;-146.48;100.00;43958.94;5305806;28;20117;-68
2022/01/18 04:03:47;;;;;;;30.35;11.80;;;;;;;-146.48;100.00;43923.03;5305401;28;20043;-68
2022/01/18 04:06:18;;;;;;;31.98;12.05;;;;;;;-146.48;100.00;43978.91;5305045;28;20028;-68
2022/01/18 04:08:49;;;;;;;29.60;11.57;;;;;;;-146.48;100.00;44040.75;5305371;28;20035;-68
2022/01/18 04:11:21;;;;;;;28.35;12.80;;;;;;;-146.48;100.00;44038.75;5305916;28;20039;-68
2022/01/18 04:13:52;;;;;;;30.85;12.27;;;;;;;-146.48;100.00;44122.56;5304419;28;20101;-66
2022/01/18 04:16:24;;;;;;;33.42;13.35;;;;;;;-146.48;100.00;44020.81;5305725;28;20360;-67
2022/01/18 04:19:11;;;;;;;35.28;12.75;;;;;;;-146.48;100.00;44000.84;5304893;28;20024;-67
2022/01/18 04:27:22;;;;;;;32.60;13.07;;;;;;;-146.48;100.00;43994.84;5305022;28;20032;-68
2022/01/18 04:29:53;;;;;;;35.45;14.00;;;;;;;-146.48;100.00;43954.94;5304773;28;20024;-68
2022/01/18 04:32:25;;;;;;;25.35;13.10;;;;;;;-146.48;100.00;43978.91;5305190;28;20088;-68
2022/01/18 04:34:57;;;;;;;29.40;13.10;;;;;;;-146.48;100.00;43909.06;5304076;28;20451;-68
2022/01/18 04:37:29;;;;;;;32.05;13.25;;;;;;;-146.48;100.00;43781.34;5305321;28;20016;-68
2022/01/18 04:40:07;;;;;;;34.53;12.68;;;;;;;-146.48;100.00;43807.28;5304510;28;20028;-68
2022/01/18 04:43:06;;;;;;;33.28;13.73;;;;;;;-146.48;100.00;43801.28;5304029;28;20031;-69
2022/01/18 04:51:08;;;;;;;34.28;13.13;;;;;;;-146.48;100.00;43857.16;5304410;28;20473;-68
2022/01/18 04:53:47;;;;;;;35.35;14.10;;;;;;;-146.48;100.00;43881.13;5304386;28;20059;-70
2022/01/18 04:56:28;;;;;;;31.98;13.88;;;;;;;-146.48;100.00;43909.06;5304387;28;20035;-69
2022/01/18 04:59:00;;;;;;;38.63;13.60;;;;;;;-146.48;100.00;43950.97;5303651;28;20020;-69
2022/01/18 05:01:32;;;;;;;39.88;15.23;;;;;;;-146.48;100.00;43825.25;5304916;28;20023;-69
2022/01/18 05:04:04;;;;;;;38.55;13.65;;;;;;;-146.48;100.00;43831.22;5303257;28;20124;-69
2022/01/18 05:06:36;;;;;;;36.28;12.90;;;;;;;-146.48;100.00;43865.16;5304866;28;20107;-69
2022/01/18 05:09:09;;;;;;;44.10;13.88;;;;;;;-146.48;100.00;43791.31;5303358;28;20112;-69
2022/01/18 05:12:05;;;;;;;47.20;13.45;;;;;;;-146.48;100.00;43727.47;5304008;28;20352;-69
2022/01/18 05:14:37;;;;;;;41.53;14.38;;;;;;;-146.48;100.00;43833.22;5304487;28;20028;-69
2022/01/18 05:17:32;;;;;;;37.85;13.90;;;;;;;-146.48;100.00;43709.50;5303961;28;20035;-67
2022/01/18 05:20:37;;;;;;;38.50;14.00;;;;;;;-146.48;100.00;43775.34;5303761;28;20122;-68
2022/01/18 05:23:04;;;;;;;44.42;14.82;;;;;;;-146.48;100.00;43813.28;5302749;28;20098;-67
2022/01/18 05:25:36;;;;;;;43.90;13.55;;;;;;;-146.48;100.00;43655.63;5304371;28;20364;-68
2022/01/18 05:28:07;;;;;;;46.53;14.40;;;;;;;-146.48;100.00;43783.34;5303825;28;20027;-68
2022/01/18 05:30:39;;;;;;;39.50;14.35;;;;;;;-146.48;100.00;43767.38;5302886;28;20030;-68
2022/01/18 05:33:10;;;;;;;46.75;14.27;;;;;;;-146.48;100.00;43765.38;5304106;28;20032;-68
2022/01/18 05:35:42;;;;;;;46.30;13.88;;;;;;;-146.48;100.00;43707.50;5303506;28;20115;-68
2022/01/18 05:38:14;;;;;;;46.58;13.43;;;;;;;-146.48;100.00;43703.53;5303245;28;20020;-68
2022/01/18 05:40:45;;;;;;;39.42;12.85;;;;;;;-146.48;100.00;43733.44;5303504;28;20028;-68
2022/01/18 05:43:17;;;;;;;41.08;13.38;;;;;;;-146.48;100.00;43713.50;5303902;28;20024;-68
2022/01/18 05:45:49;;;;;;;45.80;14.45;;;;;;;-146.48;100.00;43761.38;5302714;28;20107;-68
2022/01/18 05:48:20;;;;;;;42.55;12.82;;;;;;;-146.48;100.00;43809.28;5303981;28;20149;-69
2022/01/18 05:50:54;;;;;;;50.80;14.07;;;;;;;-146.48;100.00;43799.31;5303195;28;20107;-68
2022/01/18 05:53:30;;;;;;;48.58;13.48;;;;;;;-146.48;100.00;43705.53;5302898;28;20112;-68
2022/01/18 05:56:03;;;;;;;48.45;13.80;;;;;;;-146.48;100.00;43789.31;5303140;28;20547;-68
2022/01/18 05:58:34;;;;;;;51.85;14.45;;;;;;;-146.48;100.00;43733.44;5303072;28;20024;-68
2022/01/18 06:01:06;;;;;;;49.85;13.43;;;;;;;-146.48;100.00;43743.44;5303110;28;20028;-67
2022/01/18 06:03:51;;;;;;;49.30;13.23;;;;;;;-146.48;100.00;43635.69;5303091;28;20043;-68
2022/01/18 06:09:13;;;;;;;39.67;12.90;;;;;;;-146.48;100.00;43657.63;5303701;28;20032;-67
2022/01/18 06:11:44;;;;;;;40.45;13.93;;;;;;;-146.48;100.00;43647.66;5301554;28;20028;-68
2022/01/18 06:14:16;;;;;;;39.47;12.15;;;;;;;-146.48;100.00;43587.78;5302426;28;20031;-68
2022/01/18 06:16:47;;;;;;;47.90;13.60;;;;;;;-146.48;100.00;43543.91;5302589;28;20020;-68
2022/01/18 06:19:18;;;;;;;41.83;13.43;;;;;;;-146.48;100.00;43545.88;5302370;28;20449;-69
2022/01/18 06:21:50;;;;;;;35.75;13.07;;;;;;;-146.48;100.00;43575.81;5302803;28;20020;-69
2022/01/18 06:24:21;;;;;;;36.80;13.63;;;;;;;-146.48;100.00;43595.78;5303197;28;20111;-68
2022/01/18 06:26:52;;;;;;;49.40;14.38;;;;;;;-146.48;100.00;43559.84;5301672;28;20024;-68
2022/01/18 06:29:24;;;;;;;44.00;14.57;;;;;;;-146.48;100.00;43571.84;5303349;28;20031;-69
2022/01/18 06:31:55;;;;;;;47.38;13.73;;;;;;;-146.48;100.00;43539.91;5302849;28;20349;-69
2022/01/18 06:34:27;;;;;;;49.80;14.77;;;;;;;-146.48;100.00;43613.72;5302413;28;20061;-68
2022/01/18 06:36:59;;;;;;;51.63;15.05;;;;;;;-146.48;100.00;43667.59;5302618;28;20240;-69
2022/01/18 06:39:30;;;;;;;53.38;15.30;;;;;;;-146.48;100.00;43675.59;5303004;28;20024;-69
2022/01/18 06:42:02;;;;;;;38.17;15.27;;;;;;;-146.48;100.00;43482.03;5301509;28;20051;-69
2022/01/18 06:44:33;;;;;;;46.88;14.20;;;;;;;-146.48;100.00;43462.09;5302907;28;20525;-69
2022/01/18 06:47:05;;;;;;;53.38;15.07;;;;;;;-146.48;100.00;43555.88;5302359;28;20456;-69
2022/01/18 06:49:36;;;;;;;54.08;15.85;;;;;;;-146.48;100.00;43563.84;5302050;28;20399;-69
2022/01/18 06:52:08;;;;;;;52.33;15.80;;;;;;;-146.48;100.00;43474.06;5302091;28;20024;-69
2022/01/18 06:54:39;;;;;;;54.95;16.08;;;;;;;-146.48;100.00;43450.13;5301314;28;20039;-69
2022/01/18 06:57:10;;;;;;;48.75;16.55;;;;;;;-146.48;100.00;43494.00;5302763;28;20403;-69
2022/01/18 06:59:41;;;;;;;57.95;16.10;;;;;;;-146.48;100.00;43507.97;5302034;28;20486;-69
2022/01/18 07:02:13;;;;;;;49.92;16.75;;;;;;;-146.48;100.00;43464.09;5301568;28;20040;-69
2022/01/18 07:04:44;;;;;;;43.08;15.68;;;;;;;-146.48;100.00;43502.00;5301697;28;20051;-69
2022/01/18 07:07:17;;;;;;;55.10;16.63;;;;;;;-146.48;100.00;43436.16;5302631;28;20050;-69
2022/01/18 07:09:48;;;;;;;54.53;16.58;;;;;;;-146.48;100.00;43482.03;5301159;28;20380;-69
2022/01/18 07:12:19;;;;;;;47.90;14.70;;;;;;;-146.48;100.00;43541.91;5302544;28;20028;-69
2022/01/18 07:14:50;;;;;;;48.33;15.18;;;;;;;-146.48;100.00;43529.94;5301971;28;20035;-69
2022/01/18 07:17:22;;;;;;;47.60;15.00;;;;;;;-146.48;100.00;43500.00;5301839;28;20020;-69
2022/01/18 07:19:53;;;;;;;52.63;16.05;;;;;;;-146.48;100.00;43591.78;5301818;28;20490;-69
2022/01/18 07:22:24;;;;;;;35.63;14.88;;;;;;;-146.48;100.00;43585.78;5303216;28;20452;-69
2022/01/18 07:24:58;;;;;;;47.28;15.52;;;;;;;-146.48;100.00;43563.84;5305596;28;20032;-69
2022/01/18 07:27:29;;;;;;;38.78;14.65;;;;;;;-146.48;100.00;43553.88;5306768;28;20028;-69
2022/01/18 07:30:00;;;;;;;44.25;16.13;;;;;;;-146.48;100.00;43515.97;5305675;28;20016;-69
2022/01/18 07:32:32;;;;;;;42.35;14.93;;;;;;;-146.48;100.00;43551.88;5306906;28;20047;-69
2022/01/18 07:35:03;;;;;;;43.00;15.10;;;;;;;-146.48;100.00;43509.97;5305999;28;20038;-69
2022/01/18 07:37:35;;;;;;;39.70;14.65;;;;;;;-146.48;100.00;43581.81;5305919;28;20020;-69
2022/01/18 07:40:08;;;;;;;39.80;14.52;;;;;;;-146.48;100.00;43533.91;5305822;28;20032;-69
2022/01/18 07:42:40;;;;;;;38.45;14.70;;;;;;;-146.48;100.00;43466.09;5305961;28;20120;-68
2022/01/18 07:45:13;;;;;;;43.28;15.77;;;;;;;-146.48;100.00;43545.88;5305761;28;20452;-68
2022/01/18 07:47:44;;;;;;;38.13;14.88;;;;;;;-146.48;100.00;43527.94;5305687;28;20016;-68
2022/01/18 07:50:16;;;;;;;40.80;15.25;;;;;;;-146.48;100.00;43442.13;5306290;28;20525;-69
2022/01/18 07:52:48;;;;;;;38.22;13.82;;;;;;;-146.48;100.00;43450.13;5304975;28;20021;-69
2022/01/18 07:55:19;;;;;;;45.45;14.73;;;;;;;-146.48;100.00;43472.06;5306350;28;20433;-69
2022/01/18 07:57:51;;;;;;;29.60;13.10;;;;;;;-146.48;100.00;43547.88;5304929;28;20024;-69
2022/01/18 08:00:22;;;;;;;36.88;14.90;;;;;;;-146.48;100.00;43579.81;5306168;28;20031;-68
2022/01/18 08:02:53;;;;;;;39.78;14.20;;;;;;;-146.48;100.00;43599.75;5305723;28;20371;-68
2022/01/18 08:05:25;;;;;;;40.95;14.57;;;;;;;-146.48;100.00;43615.72;5305236;28;20139;-68
2022/01/18 08:07:56;;;;;;;38.95;15.38;;;;;;;-146.48;100.00;43519.94;5305506;28;20440;-68
2022/01/18 08:10:30;;;;;;;38.08;14.32;;;;;;;-146.48;100.00;43458.09;5305902;28;20063;-69
2022/01/18 08:13:03;;;;;;;49.53;15.93;;;;;;;-146.48;100.00;43492.03;5304479;28;20089;-70
2022/01/18 08:15:39;;;;;;;38.78;16.15;;;;;;;-146.48;100.00;43609.75;5305676;28;20038;-67
2022/01/18 08:18:15;;;;;;;44.70;15.90;;;;;;;-146.48;100.00;43635.69;5305769;28;20024;-68
2022/01/18 08:20:46;;;;;;;49.20;16.90;;;;;;;-146.48;100.00;43609.75;5304632;28;20353;-69
2022/01/18 08:23:17;;;;;;;52.33;16.35;;;;;;;-146.48;100.00;43573.81;5305821;28;20039;-71
2022/01/18 08:25:48;;;;;;;50.92;15.82;;;;;;;-146.48;100.00;43446.13;5304728;28;20035;-69
2022/01/18 08:28:20;;;;;;;53.90;17.55;;;;;;;-146.48;100.00;43384.28;5305966;28;20020;-69
2022/01/18 08:30:51;;;;;;;63.33;18.48;;;;;;;-146.48;100.00;43424.19;5305143;28;20085;-69
2022/01/18 08:33:24;;;;;;;52.42;17.88;;;;;;;-146.48;100.00;43276.53;5304681;28;20027;-69
2022/01/18 08:35:55;;;;;;;53.92;16.77;;;;;;;-146.48;100.00;43186.75;5303999;28;20032;-69
2022/01/18 08:38:27;;;;;;;50.53;17.52;;;;;;;-146.48;100.00;43093.00;5304955;28;20044;-68
2022/01/18 08:41:00;;;;;;;53.97;16.95;;;;;;;-146.48;100.00;43025.16;5303967;28;20402;-68
2022/01/18 08:43:32;;;;;;;53.70;15.80;;;;;;;-146.48;100.00;42987.25;5305631;28;20024;-67
2022/01/18 08:46:04;;;;;;;63.92;17.75;;;;;;;-146.48;100.00;43041.13;5304650;28;20028;-68
2022/01/18 08:48:36;;;;;;;58.45;16.80;;;;;;;-146.48;100.00;43047.09;5304475;28;20020;-68
2022/01/18 08:51:08;;;;;;;63.97;17.83;;;;;;;-146.48;100.00;43063.06;5304595;28;20099;-67
2022/01/18 08:53:41;;;;;;;52.65;16.75;;;;;;;-146.48;100.00;43071.03;5304805;28;20361;-68
2022/01/18 08:56:12;;;;;;;55.03;17.10;;;;;;;-146.48;100.00;43106.94;5303942;28;20032;-68
2022/01/18 08:58:45;;;;;;;45.38;16.67;;;;;;;-146.48;100.00;42985.25;5304324;28;20332;-69
2022/01/18 09:01:17;;;;;;;55.92;16.08;;;;;;;-146.48;100.00;42895.47;5304196;28;20139;-68
2022/01/18 09:03:50;;;;;;;47.85;15.77;;;;;;;-146.48;100.00;42857.56;5304498;28;20036;-68
2022/01/18 09:06:23;;;;;;;60.40;18.33;;;;;;;-146.48;100.00;42933.38;5305108;28;20502;-68
2022/01/18 09:08:58;;;;;;;62.80;17.20;;;;;;;-146.48;100.00;42969.28;5303493;28;20024;-70
2022/01/18 09:11:31;;;;;;;63.60;17.33;;;;;;;-146.48;100.00;42955.31;5304795;28;20024;-69
2022/01/18 09:14:02;;;;;;;53.17;16.67;;;;;;;-146.48;100.00;42901.47;5304506;28;20443;-68
2022/01/18 09:16:33;;;;;;;48.25;15.27;;;;;;;-146.48;100.00;42927.41;5304175;28;20028;-69
2022/01/18 09:19:05;;;;;;;48.25;15.35;;;;;;;-146.48;100.00;42851.59;5304026;28;20110;-68
2022/01/18 09:21:37;;;;;;;45.75;16.08;;;;;;;-146.48;100.00;42897.47;5304523;28;20097;-69
2022/01/18 09:24:08;;;;;;;49.95;17.55;;;;;;;-146.48;100.00;42889.50;5303166;28;20036;-69
2022/01/18 09:26:40;;;;;;;45.20;15.40;;;;;;;-146.48;100.00;42957.31;5303834;28;20064;-69
2022/01/18 09:29:12;;;;;;;53.72;16.40;;;;;;;-146.48;100.00;42937.38;5303395;28;20467;-69
2022/01/18 09:31:44;;;;;;;49.30;16.55;;;;;;;-146.48;100.00;42911.44;5303554;28;20024;-69
2022/01/18 09:34:15;;;;;;;43.67;16.25;;;;;;;-146.48;100.00;42861.56;5304315;28;20391;-69
2022/01/18 09:36:46;;;;;;;42.75;15.10;;;;;;;-146.48;100.00;42783.75;5302680;28;20416;-68
2022/01/18 09:39:18;;;;;;;45.38;15.75;;;;;;;-146.48;100.00;42831.63;5304383;28;20398;-68
2022/01/18 09:41:51;;;;;;;45.63;15.77;;;;;;;-146.48;100.00;42799.72;5303613;28;20020;-68
2022/01/18 09:44:23;;;;;;;49.72;17.20;;;;;;;-146.48;100.00;42819.66;5303323;28;20081;-68
2022/01/18 09:46:54;;;;;;;47.17;17.38;;;;;;;-146.48;100.00;42821.66;5303066;28;20422;-67
2022/01/18 09:49:25;;;;;;;48.60;16.13;;;;;;;-146.48;100.00;42723.91;5303983;28;20024;-68
2022/01/18 09:51:57;;;;;;;42.40;16.13;;;;;;;-146.48;100.00;42664.06;5302766;28;20475;-69
2022/01/18 09:54:28;;;;;;;41.17;16.85;;;;;;;-146.48;100.00;42785.75;5303892;28;20081;-66
2022/01/18 09:56:59;;;;;;;37.60;16.50;;;;;;;-146.48;100.00;42703.97;5303184;28;20365;-69
2022/01/18 09:59:32;;;;;;;48.70;19.05;;;;;;;-146.48;100.00;42632.16;5303084;28;20487;-68
2022/01/18 10:02:06;;;;;;;46.90;18.58;;;;;;;-146.48;100.00;42594.25;5303349;28;20028;-68
2022/01/18 10:04:44;;;;;;;47.22;18.45;;;;;;;-146.48;100.00;42707.97;5302574;28;20528;-68
2022/01/18 10:07:15;;;;;;;43.15;16.65;;;;;;;-146.48;100.00;42703.97;5303877;28;20365;-67
2022/01/18 10:09:58;;;;;;;43.88;17.73;;;;;;;-146.48;100.00;42775.78;5300438;28;20023;-68
2022/01/18 10:12:30;;;;;;;39.70;17.58;;;;;;;-146.48;100.00;42709.94;5300879;28;20475;-68
2022/01/18 10:15:04;;;;;;;48.22;19.10;;;;;;;-146.48;100.00;42823.66;5302406;28;20039;-70
2022/01/18 10:17:41;;;;;;;48.15;19.40;;;;;;;-146.48;100.00;42929.41;5303456;28;20058;-68
2022/01/18 10:20:18;;;;;;;42.47;18.38;;;;;;;-146.48;100.00;42857.56;5302436;28;20387;-68
2022/01/18 10:22:50;;;;;;;46.58;19.40;;;;;;;-146.48;100.00;42783.75;5303089;28;20063;-69
2022/01/18 10:25:26;;;;;;;52.67;19.33;;;;;;;-146.48;100.00;42827.66;5303029;28;20047;-68
2022/01/18 10:27:58;;;;;;;42.03;18.13;;;;;;;-146.48;100.00;42899.47;5301142;28;20467;-68
2022/01/18 10:30:35;;;;;;;39.28;17.33;;;;;;;-146.48;100.00;42861.56;5302742;28;20035;-67
2022/01/18 10:33:19;;;;;;;42.13;19.13;;;;;;;-146.48;100.00;42909.44;5301410;28;20070;-68
2022/01/18 10:36:11;;;;;;;34.78;15.10;;;;;;;-146.48;100.00;42957.31;5301979;28;20035;-68
2022/01/18 10:38:48;;;;;;;32.50;14.32;;;;;;;-146.48;100.00;42703.97;5302023;28;20039;-69
2022/01/18 10:41:30;;;;;;;32.85;15.05;;;;;;;-146.48;100.00;42662.06;5301747;28;20028;-68
2022/01/18 10:44:03;;;;;;;37.10;14.85;;;;;;;-146.48;100.00;42634.16;5302727;28;20043;-68
2022/01/18 10:46:58;;;;;;;34.25;14.55;;;;;;;-146.48;100.00;42755.84;5302137;28;20527;-68
2022/01/18 10:49:43;;;;;;;36.78;15.88;;;;;;;-146.48;100.00;42330.94;5296788;28;20076;-68
2022/01/18 10:52:20;;;;;;;36.30;17.58;;;;;;;-146.48;100.00;42097.56;5303208;28;20379;-69
2022/01/18 10:54:57;;;;;;;42.72;17.98;;;;;;;-146.48;100.00;42087.59;5301719;28;20051;-68
2022/01/18 10:57:33;;;;;;;40.85;18.92;;;;;;;-146.48;100.00;42053.69;5302218;28;20483;-68
2022/01/18 11:00:18;;;;;;;37.72;19.33;;;;;;;-146.48;100.00;42069.66;5301988;28;20475;-68
2022/01/18 11:02:53;;;;;;;46.35;19.05;;;;;;;-146.48;100.00;42079.63;5301547;28;20024;-68
2022/01/18 11:05:27;;;;;;;41.60;17.25;;;;;;;-146.48;100.00;41983.88;5302530;28;20399;-68
2022/01/18 11:08:06;;;;;;;38.55;17.48;;;;;;;-146.48;100.00;42145.44;5301266;28;20032;-68
2022/01/18 11:10:42;;;;;;;40.80;18.85;;;;;;;-146.48;100.00;42147.44;5302195;28;20536;-68
2022/01/18 11:13:22;;;;;;;43.28;17.58;;;;;;;-146.48;100.00;42049.72;5302481;28;20035;-67
2022/01/18 11:16:03;;;;;;;40.67;16.33;;;;;;;-146.48;100.00;42095.56;5294180;28;20063;-68
2022/01/18 11:18:37;;;;;;;44.45;16.42;;;;;;;-146.48;100.00;42065.66;5300205;28;20052;-68
2022/01/18 11:21:08;;;;;;;42.20;16.55;;;;;;;-146.48;100.00;41942.00;5302196;28;20032;-67
2022/01/18 11:23:40;;;;;;;40.22;14.82;;;;;;;-146.48;100.00;41766.50;5301238;28;20368;-67
2022/01/18 11:26:12;;;;;;;41.75;15.55;;;;;;;-146.48;100.00;41734.59;5302328;28;20020;-67
2022/01/18 11:28:43;;;;;;;39.42;15.10;;;;;;;-146.48;100.00;41666.78;5300953;28;20110;-68
2022/01/18 11:31:14;;;;;;;35.90;14.85;;;;;;;-146.48;100.00;41565.06;5302283;28;20356;-67
2022/01/18 11:33:53;;;;;;;37.08;13.77;;;;;;;-146.48;100.00;41483.28;5301753;28;20035;-67
2022/01/18 11:36:28;;;;;;;40.78;15.13;;;;;;;-146.48;100.00;41383.59;5299105;28;20024;-67
2022/01/18 11:39:07;;;;;;;40.28;14.57;;;;;;;-146.48;100.00;41182.19;5300432;28;20032;-67
2022/01/18 11:41:39;;;;;;;34.53;12.70;;;;;;;-146.48;100.00;40897.03;5300202;28;20028;-67
2022/01/18 11:44:20;;;;;;;32.78;12.73;;;;;;;-146.48;100.00;40615.91;5297030;28;20032;-68
2022/01/18 11:46:55;;;;;;;38.10;13.18;;;;;;;-146.48;100.00;40492.28;5299988;28;20032;-69
2022/01/18 11:49:30;;;;;;;37.20;13.35;;;;;;;-146.48;100.00;40584.00;5301033;28;20447;-67
2022/01/18 11:52:09;;;;;;;35.95;12.82;;;;;;;-146.48;100.00;40532.16;5299370;28;20077;-67
2022/01/18 11:54:57;;;;;;;36.75;13.60;;;;;;;-146.48;100.00;40322.81;5299846;28;20510;-68
2022/01/18 11:57:29;;;;;;;31.73;13.18;;;;;;;-146.48;100.00;40450.41;5299791;28;20464;-67
2022/01/18 12:00:06;;;;;;;35.35;13.05;;;;;;;-146.48;100.00;40245.06;5299897;28;20097;-68
2022/01/18 12:02:42;;;;;;;33.45;12.75;;;;;;;-146.48;100.00;40221.13;5300461;28;20512;-66
2022/01/18 12:05:20;;;;;;;37.15;13.43;;;;;;;-146.48;100.00;40077.59;5299153;28;20071;-67
2022/01/18 12:07:59;;;;;;;37.30;12.05;;;;;;;-146.48;100.00;39928.09;5290176;28;20016;-68
2022/01/18 12:10:31;;;;;;;34.78;12.43;;;;;;;-146.48;100.00;39752.66;5303544;28;20089;-68
2022/01/18 12:13:02;;;;;;;32.83;13.15;;;;;;;-146.48;100.00;39607.16;5303113;28;20483;-68